Time;durP1;ratioP1;P1;durP2;ratioP2;P2;SDS_P1;SDS_P2;PMS_P1;PMS_P2;Temp;Humidity;BMP_temperature;BMP_pressure;BME280_temperature;BME280_humidity;BME280_pressure;Samples;Min_cycle;Max_cycle;Signal;HPM_P1;HPM_P2
2022/09/19 00:01:32;;;;;;;2.05;1.00;;;10.80;99.90;;;;;;5077742;28;20084;-79
2022/09/19 00:04:26;;;;;;;0.00;0.00;;;10.80;99.90;;;;;;5077743;28;20079;-80
2022/09/19 00:06:53;;;;;;;0.00;0.00;;;10.80;99.90;;;;;;5068537;28;20056;-80
2022/09/19 00:09:21;;;;;;;0.00;0.00;;;10.90;99.90;;;;;;5078567;28;20044;-80
2022/09/19 00:11:48;;;;;;;0.10;0.10;;;10.90;99.90;;;;;;5080476;28;20044;-79
2022/09/19 00:14:18;;;;;;;0.03;0.03;;;11.00;99.90;;;;;;5084478;28;20068;-79
2022/09/19 00:16:45;;;;;;;0.00;0.00;;;11.00;99.90;;;;;;5086126;28;20052;-80
2022/09/19 00:19:16;;;;;;;1.45;0.35;;;10.90;99.90;;;;;;5086280;28;20055;-78
2022/09/19 00:21:45;;;;;;;2.85;0.38;;;10.90;99.90;;;;;;5068320;28;20079;-79
2022/09/19 00:26:58;;;;;;;0.00;0.00;;;10.80;99.90;;;;;;5080504;28;20053;-78
2022/09/19 00:29:24;;;;;;;0.00;0.00;;;10.80;99.90;;;;;;5079943;28;20044;-78
2022/09/19 00:31:51;;;;;;;0.00;0.00;;;10.80;99.90;;;;;;5078684;28;20124;-81
2022/09/19 00:34:19;;;;;;;0.20;0.20;;;10.80;99.90;;;;;;5078495;28;20059;-77
2022/09/19 00:36:45;;;;;;;0.13;0.10;;;10.90;99.90;;;;;;5077967;28;20044;-78
2022/09/19 00:39:13;;;;;;;0.00;0.00;;;10.90;99.90;;;;;;5078906;28;20034;-78
2022/09/19 00:41:40;;;;;;;9.70;0.50;;;10.90;99.90;;;;;;5078622;28;20049;-79
2022/09/19 00:44:26;;;;;;;3.30;1.48;;;10.90;99.90;;;;;;5080029;28;20044;-79
2022/09/19 00:47:05;;;;;;;0.43;0.43;;;11.00;99.90;;;;;;5080776;28;20052;-79
2022/09/19 00:49:33;;;;;;;0.35;0.30;;;11.00;99.90;;;;;;5079308;28;20076;-80
2022/09/19 00:52:03;;;;;;;0.70;0.70;;;10.90;99.90;;;;;;5074463;28;20067;-80
2022/09/19 00:54:33;;;;;;;0.00;0.00;;;11.00;99.90;;;;;;5061140;28;20054;-81
2022/09/19 00:57:00;;;;;;;0.00;0.00;;;11.00;99.90;;;;;;5067232;28;20028;-80
2022/09/19 00:59:29;;;;;;;0.52;0.35;;;10.90;99.90;;;;;;5084691;28;20053;-80
2022/09/19 01:01:56;;;;;;;0.40;0.30;;;10.80;99.90;;;;;;5083935;28;20067;-80
2022/09/19 01:04:25;;;;;;;0.10;0.10;;;10.80;99.90;;;;;;5084565;28;20040;-80
2022/09/19 01:07:13;;;;;;;0.63;0.22;;;10.70;99.90;;;;;;5086715;28;20064;-80
2022/09/19 01:10:00;;;;;;;0.63;0.63;;;10.60;99.90;;;;;;5086579;28;20072;-80
2022/09/19 01:12:54;;;;;;;0.10;0.10;;;10.50;99.90;;;;;;5091358;28;20020;-80
2022/09/19 01:15:39;;;;;;;0.75;0.65;;;10.60;99.90;;;;;;5088218;28;20068;-80
2022/09/19 01:18:06;;;;;;;0.00;0.00;;;10.60;99.90;;;;;;5086761;28;20116;-79
2022/09/19 01:20:35;;;;;;;0.00;0.00;;;11.30;99.90;;;;;;5086376;28;20044;-79
2022/09/19 01:23:16;;;;;;;0.00;0.00;;;11.00;99.90;;;;;;5084181;28;20052;-79
2022/09/19 01:26:02;;;;;;;0.13;0.13;;;10.60;99.90;;;;;;5083693;28;20032;-79
2022/09/19 01:28:41;;;;;;;0.15;0.10;;;10.80;99.90;;;;;;5083219;28;20044;-80
2022/09/19 01:31:18;;;;;;;0.63;0.43;;;10.70;99.90;;;;;;5078952;28;20048;-80
2022/09/19 01:34:12;;;;;;;0.45;0.45;;;10.80;99.90;;;;;;5083153;28;20048;-80
2022/09/19 01:36:43;;;;;;;0.70;0.52;;;10.80;99.90;;;;;;5083074;28;20375;-80
2022/09/19 01:39:11;;;;;;;2.50;0.88;;;10.80;99.90;;;;;;5085186;28;20025;-79
2022/09/19 01:41:36;;;;;;;0.38;0.25;;;10.90;99.90;;;;;;5084145;28;20052;-80
2022/09/19 01:44:05;;;;;;;1.08;0.65;;;10.90;99.90;;;;;;5084514;28;20028;-78
2022/09/19 01:46:52;;;;;;;0.00;0.00;;;11.00;99.90;;;;;;5085469;28;20162;-79
2022/09/19 01:49:46;;;;;;;0.28;0.28;;;11.00;99.90;;;;;;5085394;28;20048;-80
2022/09/19 01:52:14;;;;;;;11.60;2.30;;;11.00;99.90;;;;;;5086414;28;20088;-79
2022/09/19 01:55:08;;;;;;;0.47;0.45;;;11.00;99.90;;;;;;5086419;28;20053;-80
2022/09/19 01:58:06;;;;;;;0.00;0.00;;;11.00;99.90;;;;;;5149580;22;20048;-76
2022/09/19 02:00:34;;;;;;;0.10;0.10;;;11.10;99.90;;;;;;5064212;28;20399;-80
2022/09/19 02:03:20;;;;;;;0.00;0.00;;;11.10;99.90;;;;;;5067561;28;20083;-78
2022/09/19 02:06:06;;;;;;;0.10;0.10;;;11.20;99.90;;;;;;5067595;28;20045;-78
2022/09/19 02:08:59;;;;;;;0.00;0.00;;;11.70;99.90;;;;;;5068194;28;20143;-81
2022/09/19 02:11:25;;;;;;;0.00;0.00;;;11.10;99.90;;;;;;5069179;28;20040;-80
2022/09/19 02:14:17;;;;;;;0.75;0.38;;;11.10;99.90;;;;;;5067353;28;20167;-79
2022/09/19 02:17:13;;;;;;;0.03;0.03;;;11.00;99.90;;;;;;5067130;28;20044;-80
2022/09/19 02:19:51;;;;;;;1.08;0.73;;;11.00;99.90;;;;;;5061745;28;20084;-79
2022/09/19 02:22:26;;;;;;;0.08;0.08;;;11.00;99.90;;;;;;5069057;28;20052;-80
2022/09/19 02:24:58;;;;;;;0.15;0.10;;;11.00;99.90;;;;;;5067205;28;20064;-80
2022/09/19 02:27:28;;;;;;;1.40;1.00;;;11.00;99.90;;;;;;5067775;28;20445;-80
2022/09/19 02:30:00;;;;;;;0.20;0.20;;;11.00;99.90;;;;;;5066701;28;20074;-80
2022/09/19 02:32:26;;;;;;;0.00;0.00;;;11.00;99.90;;;;;;5067246;28;20436;-81
2022/09/19 02:34:53;;;;;;;3.13;2.13;;;11.00;99.90;;;;;;5068442;28;20044;-79
2022/09/19 02:37:29;;;;;;;0.00;0.00;;;11.10;99.90;;;;;;5069954;28;20044;-80
2022/09/19 02:40:08;;;;;;;0.10;0.10;;;11.10;99.90;;;;;;5074243;28;20051;-82
2022/09/19 02:42:56;;;;;;;0.00;0.00;;;11.10;99.90;;;;;;5075715;28;20127;-82
2022/09/19 02:45:31;;;;;;;0.10;0.10;;;11.10;99.90;;;;;;5072332;28;20041;-81
2022/09/19 02:48:23;;;;;;;0.65;0.65;;;11.20;99.90;;;;;;5075558;28;20085;-82
2022/09/19 02:50:49;;;;;;;1.10;0.20;;;11.20;99.90;;;;;;5048774;28;20056;-79
2022/09/19 02:53:21;;;;;;;25.40;1.13;;;11.10;99.90;;;;;;5065313;28;20481;-79
2022/09/19 02:55:51;;;;;;;0.00;0.00;;;11.20;99.90;;;;;;5061032;28;20052;-79
2022/09/19 02:58:18;;;;;;;4.57;0.20;;;11.20;99.90;;;;;;5080278;28;20743;-78
2022/09/19 03:00:52;;;;;;;0.52;0.45;;;11.10;99.90;;;;;;5085217;28;20661;-79
2022/09/19 03:06:30;;;;;;;5.78;1.08;;;11.10;99.90;;;;;;5072690;28;20572;-78
2022/09/19 03:08:57;;;;;;;0.00;0.00;;;11.10;99.90;;;;;;5065112;28;20131;-78
2022/09/19 03:11:26;;;;;;;0.00;0.00;;;11.10;99.90;;;;;;5065701;28;20048;-78
2022/09/19 03:13:58;;;;;;;0.00;0.00;;;11.00;99.90;;;;;;5073542;28;20418;-78
2022/09/19 03:16:27;;;;;;;0.00;0.00;;;10.90;99.90;;;;;;5085453;28;20047;-79
2022/09/19 03:18:56;;;;;;;0.00;0.00;;;10.90;99.90;;;;;;5085213;28;20036;-79
2022/09/19 03:21:23;;;;;;;0.00;0.00;;;10.80;99.90;;;;;;5085008;28;20517;-78
2022/09/19 03:23:52;;;;;;;0.57;0.40;;;10.60;99.90;;;;;;5079237;28;20040;-80
2022/09/19 03:26:20;;;;;;;0.00;0.00;;;10.50;99.90;;;;;;5064925;28;20102;-80
2022/09/19 03:28:46;;;;;;;0.00;0.00;;;10.40;99.90;;;;;;5065630;28;20091;-80
2022/09/19 03:31:13;;;;;;;0.88;0.10;;;10.50;99.90;;;;;;5065030;28;20071;-79
2022/09/19 03:33:41;;;;;;;0.00;0.00;;;10.50;99.90;;;;;;5070492;28;20040;-79
2022/09/19 03:36:11;;;;;;;0.00;0.00;;;10.60;99.90;;;;;;5084244;28;20055;-80
2022/09/19 03:38:44;;;;;;;0.00;0.00;;;10.60;99.90;;;;;;5081404;28;20081;-77
2022/09/19 03:41:14;;;;;;;1.15;0.63;;;10.70;99.90;;;;;;5081291;28;20414;-79
2022/09/19 03:43:43;;;;;;;0.00;0.00;;;10.70;99.90;;;;;;5068823;28;20061;-79
2022/09/19 03:46:11;;;;;;;0.00;0.00;;;10.80;99.90;;;;;;5083193;28;20059;-80
2022/09/19 03:48:38;;;;;;;0.00;0.00;;;10.80;99.90;;;;;;5083012;28;20044;-79
2022/09/19 03:51:04;;;;;;;0.00;0.00;;;10.80;99.90;;;;;;5082158;28;20508;-81
2022/09/19 03:53:30;;;;;;;0.00;0.00;;;10.80;99.90;;;;;;5062370;28;20102;-80
2022/09/19 03:55:57;;;;;;;0.00;0.00;;;10.80;99.90;;;;;;5062410;28;20045;-80
2022/09/19 03:58:23;;;;;;;12.10;3.20;;;10.80;99.90;;;;;;5061063;28;20056;-81
2022/09/19 04:00:49;;;;;;;1.55;1.45;;;11.00;99.90;;;;;;5062628;28;20608;-79
2022/09/19 04:03:17;;;;;;;1.00;0.95;;;11.00;99.90;;;;;;5078722;28;20044;-79
2022/09/19 04:05:42;;;;;;;0.00;0.00;;;11.00;99.90;;;;;;5081344;28;20059;-80
2022/09/19 04:08:08;;;;;;;4.85;1.38;;;11.00;99.90;;;;;;5081498;28;20063;-79
2022/09/19 04:10:34;;;;;;;0.00;0.00;;;10.90;99.90;;;;;;5082923;28;20050;-79
2022/09/19 04:13:00;;;;;;;0.10;0.10;;;10.90;99.90;;;;;;5060922;28;20082;-80
2022/09/19 04:15:25;;;;;;;0.00;0.00;;;10.90;99.90;;;;;;5063090;28;20572;-79
2022/09/19 04:17:51;;;;;;;0.32;0.22;;;10.90;99.90;;;;;;5062211;28;20084;-78
2022/09/19 04:20:17;;;;;;;3.30;0.40;;;10.80;99.90;;;;;;5071220;28;20439;-79
2022/09/19 04:22:42;;;;;;;0.55;0.35;;;10.80;99.90;;;;;;5082615;28;20071;-79
2022/09/19 04:25:10;;;;;;;0.00;0.00;;;10.80;99.90;;;;;;5064024;28;20044;-80
2022/09/19 04:27:39;;;;;;;0.25;0.15;;;10.80;99.90;;;;;;5061191;28;20491;-78
2022/09/19 04:30:06;;;;;;;0.10;0.10;;;10.80;99.90;;;;;;5069337;28;20035;-80
2022/09/19 04:32:32;;;;;;;0.95;0.52;;;10.80;99.90;;;;;;5082159;28;20048;-80
2022/09/19 04:34:59;;;;;;;5.35;0.63;;;10.80;99.90;;;;;;5065362;28;20040;-78
2022/09/19 04:37:26;;;;;;;0.10;0.10;;;10.90;99.90;;;;;;5062130;28;20521;-80
2022/09/19 04:39:51;;;;;;;0.55;0.55;;;11.10;99.90;;;;;;5064806;28;20048;-79
2022/09/19 04:42:17;;;;;;;0.00;0.00;;;11.10;99.90;;;;;;5075120;28;20044;-80
2022/09/19 04:44:44;;;;;;;0.08;0.08;;;11.10;99.90;;;;;;5080230;28;20048;-80
2022/09/19 04:47:10;;;;;;;0.00;0.00;;;11.10;99.90;;;;;;5080357;28;20040;-81
2022/09/19 04:49:39;;;;;;;8.63;1.48;;;11.00;99.90;;;;;;5081717;28;20047;-81
2022/09/19 04:52:12;;;;;;;0.00;0.00;;;10.90;99.90;;;;;;5080477;28;20541;-79
2022/09/19 04:54:38;;;;;;;1.00;0.65;;;10.90;99.90;;;;;;5081606;28;20379;-80
2022/09/19 04:57:05;;;;;;;0.35;0.35;;;10.90;99.90;;;;;;5079389;28;20060;-80
2022/09/19 04:59:33;;;;;;;12.02;0.38;;;10.90;99.90;;;;;;5061435;28;20048;-80
2022/09/19 05:01:59;;;;;;;0.25;0.25;;;10.90;99.90;;;;;;5061751;28;20080;-80
2022/09/19 05:04:25;;;;;;;0.00;0.00;;;10.90;99.90;;;;;;5059292;28;20067;-80
2022/09/19 05:06:51;;;;;;;10.75;0.30;;;10.90;99.90;;;;;;5064573;28;20032;-79
2022/09/19 05:09:17;;;;;;;0.17;0.15;;;11.00;99.90;;;;;;5078743;28;20048;-79
2022/09/19 05:11:46;;;;;;;0.57;0.38;;;11.00;99.90;;;;;;5080244;28;20069;-79
2022/09/19 05:14:13;;;;;;;0.10;0.10;;;11.00;99.90;;;;;;5069193;28;20101;-80
2022/09/19 05:16:42;;;;;;;0.73;0.73;;;11.00;99.90;;;;;;5066706;28;20173;-80
2022/09/19 05:19:08;;;;;;;0.00;0.00;;;11.00;99.90;;;;;;5060112;28;20093;-79
2022/09/19 05:21:34;;;;;;;0.65;0.55;;;11.10;99.90;;;;;;5059741;28;20076;-79
2022/09/19 05:24:00;;;;;;;0.00;0.00;;;11.10;99.90;;;;;;5070542;28;20044;-79
2022/09/19 05:26:27;;;;;;;0.20;0.10;;;11.00;99.90;;;;;;5079767;28;20063;-80
2022/09/19 05:28:53;;;;;;;0.13;0.13;;;11.00;99.90;;;;;;5077970;28;20375;-80
2022/09/19 05:31:19;;;;;;;0.10;0.10;;;10.90;99.90;;;;;;5081225;28;20365;-79
2022/09/19 05:33:46;;;;;;;0.10;0.10;;;11.00;99.90;;;;;;5081036;28;20079;-78
2022/09/19 05:36:13;;;;;;;1.27;0.82;;;10.90;99.90;;;;;;5081712;28;20074;-80
2022/09/19 05:38:39;;;;;;;0.00;0.00;;;10.90;99.90;;;;;;5081669;28;20076;-78
2022/09/19 05:41:05;;;;;;;3.10;0.10;;;10.90;99.90;;;;;;5081822;28;20485;-78
2022/09/19 05:43:32;;;;;;;0.00;0.00;;;10.90;99.90;;;;;;5081506;28;20056;-79
2022/09/19 05:45:58;;;;;;;0.17;0.17;;;11.00;99.90;;;;;;5082172;28;20113;-78
2022/09/19 05:48:25;;;;;;;0.17;0.17;;;11.00;99.90;;;;;;5081779;28;20052;-79
2022/09/19 05:50:51;;;;;;;0.00;0.00;;;11.10;99.90;;;;;;5080729;28;20048;-79
2022/09/19 05:56:04;;;;;;;0.25;0.25;;;11.20;99.90;;;;;;5081717;28;20055;-79
2022/09/19 05:58:30;;;;;;;5.07;0.65;;;11.20;99.90;;;;;;5085033;28;20090;-80
2022/09/19 06:00:57;;;;;;;2.15;0.82;;;11.30;99.90;;;;;;5085830;28;20105;-80
2022/09/19 06:03:22;;;;;;;0.17;0.10;;;11.30;99.90;;;;;;5084208;28;20215;-78
2022/09/19 06:05:51;;;;;;;0.35;0.35;;;11.30;99.90;;;;;;5084940;28;20387;-79
2022/09/19 06:08:19;;;;;;;0.13;0.13;;;11.40;99.90;;;;;;5085113;28;20055;-80
2022/09/19 06:10:46;;;;;;;1.17;0.63;;;11.50;99.90;;;;;;5084907;28;20126;-81
2022/09/19 06:13:15;;;;;;;0.10;0.10;;;11.50;99.90;;;;;;5083456;28;20449;-79
2022/09/19 06:15:40;;;;;;;0.10;0.10;;;11.40;99.90;;;;;;5084899;28;20432;-78
2022/09/19 06:18:09;;;;;;;12.10;1.33;;;11.40;99.90;;;;;;5084196;28;20452;-78
2022/09/19 06:20:35;;;;;;;3.40;0.45;;;11.40;99.90;;;;;;5064709;28;20056;-79
2022/09/19 06:23:02;;;;;;;0.10;0.10;;;11.30;99.90;;;;;;5063866;28;20085;-80
2022/09/19 06:25:32;;;;;;;1.75;0.55;;;11.30;99.90;;;;;;5064089;28;20045;-79
2022/09/19 06:28:00;;;;;;;6.05;2.35;;;11.20;99.90;;;;;;5063901;28;20079;-79
2022/09/19 06:30:27;;;;;;;0.00;0.00;;;11.20;99.90;;;;;;5063669;28;20135;-80
2022/09/19 06:32:53;;;;;;;0.00;0.00;;;11.20;99.90;;;;;;5062561;28;20048;-79
2022/09/19 06:35:20;;;;;;;0.55;0.55;;;11.20;99.90;;;;;;5063884;28;20047;-79
2022/09/19 06:37:47;;;;;;;0.00;0.00;;;11.40;99.90;;;;;;5063885;28;20403;-79
2022/09/19 06:40:13;;;;;;;0.65;0.52;;;11.60;99.90;;;;;;5064328;28;20044;-80
2022/09/19 06:42:39;;;;;;;0.00;0.00;;;12.40;99.90;;;;;;5064183;28;20128;-80
2022/09/19 06:45:06;;;;;;;0.93;0.90;;;11.90;99.90;;;;;;5064166;28;20123;-80
2022/09/19 06:47:32;;;;;;;0.52;0.40;;;12.10;99.90;;;;;;5063955;28;20153;-79
2022/09/19 06:50:00;;;;;;;0.00;0.00;;;12.10;99.90;;;;;;5046381;28;20906;-79
2022/09/19 06:52:26;;;;;;;0.17;0.17;;;12.00;99.90;;;;;;5062265;28;20055;-80
2022/09/19 06:54:52;;;;;;;0.00;0.00;;;12.00;99.90;;;;;;5063793;28;20124;-80
2022/09/19 06:57:18;;;;;;;1.55;0.30;;;12.10;99.90;;;;;;5063756;28;20140;-81
2022/09/19 06:59:44;;;;;;;0.82;0.55;;;12.20;99.90;;;;;;5062990;28;20048;-81
2022/09/19 07:02:10;;;;;;;0.75;0.65;;;12.30;99.90;;;;;;5063720;28;20041;-81
2022/09/19 07:04:36;;;;;;;1.58;1.10;;;12.30;99.90;;;;;;5063585;28;20075;-81
2022/09/19 07:07:02;;;;;;;0.57;0.30;;;12.30;99.90;;;;;;5063275;28;20086;-80
2022/09/19 07:09:27;;;;;;;0.43;0.40;;;12.40;99.90;;;;;;5063685;28;20041;-79
2022/09/19 07:11:54;;;;;;;0.00;0.00;;;12.20;99.90;;;;;;5063871;28;20056;-80
2022/09/19 07:14:20;;;;;;;0.55;0.30;;;12.00;99.90;;;;;;5063902;28;20055;-80
2022/09/19 07:16:45;;;;;;;0.00;0.00;;;11.90;99.90;;;;;;5063882;28;20359;-79
2022/09/19 07:19:11;;;;;;;0.80;0.40;;;11.90;99.90;;;;;;5062728;28;20487;-80
2022/09/19 07:21:36;;;;;;;0.47;0.38;;;11.80;99.90;;;;;;5061120;28;20044;-80
2022/09/19 07:24:04;;;;;;;0.20;0.20;;;11.90;99.90;;;;;;5061252;28;20666;-80
2022/09/19 07:26:30;;;;;;;2.65;0.63;;;11.90;99.90;;;;;;5061535;28;20052;-80
2022/09/19 07:28:55;;;;;;;0.13;0.08;;;12.10;99.90;;;;;;5061821;28;20049;-79
2022/09/19 07:31:21;;;;;;;1.25;0.63;;;12.10;99.90;;;;;;5061584;28;20048;-79
2022/09/19 07:33:47;;;;;;;1.85;0.20;;;12.20;99.90;;;;;;5060507;28;20101;-79
2022/09/19 07:36:13;;;;;;;0.08;0.08;;;12.20;99.90;;;;;;5061908;28;20124;-79
2022/09/19 07:38:38;;;;;;;0.00;0.00;;;12.20;99.90;;;;;;5061749;28;20083;-79
2022/09/19 07:41:05;;;;;;;0.10;0.10;;;12.30;99.90;;;;;;5061190;28;20048;-80
2022/09/19 07:43:30;;;;;;;0.00;0.00;;;12.40;99.90;;;;;;5061701;28;20491;-80
2022/09/19 07:45:56;;;;;;;14.07;0.47;;;12.60;99.90;;;;;;5061516;28;20050;-79
2022/09/19 07:48:22;;;;;;;0.20;0.20;;;12.70;99.90;;;;;;5061545;28;20063;-80
2022/09/19 07:50:48;;;;;;;2.72;1.35;;;12.80;99.90;;;;;;5061379;28;20144;-80
2022/09/19 07:53:16;;;;;;;0.70;0.40;;;13.00;99.90;;;;;;5060949;28;20098;-80
2022/09/19 07:55:42;;;;;;;0.60;0.60;;;13.10;99.90;;;;;;5061422;28;20064;-80
2022/09/19 07:58:11;;;;;;;0.20;0.05;;;13.20;99.90;;;;;;5060838;28;20060;-80
2022/09/19 08:00:38;;;;;;;0.45;0.40;;;13.20;99.90;;;;;;5060819;28;20127;-80
2022/09/19 08:03:08;;;;;;;0.80;0.75;;;13.40;99.90;;;;;;5060726;28;20048;-79
2022/09/19 08:05:36;;;;;;;2.08;0.93;;;13.60;99.90;;;;;;5061221;28;20044;-80
2022/09/19 08:08:02;;;;;;;0.10;0.10;;;13.40;99.90;;;;;;5060733;28;20534;-80
2022/09/19 08:10:28;;;;;;;0.80;0.45;;;13.00;99.90;;;;;;5060828;28;20067;-79
2022/09/19 08:13:02;;;;;;;0.00;0.00;;;12.70;99.90;;;;;;5060649;28;20059;-78
2022/09/19 08:15:29;;;;;;;2.20;0.30;;;12.40;99.90;;;;;;5060609;28;20510;-79
2022/09/19 08:17:56;;;;;;;0.10;0.10;;;12.20;99.90;;;;;;5059048;28;20044;-79
2022/09/19 08:20:22;;;;;;;1.10;0.85;;;12.20;99.90;;;;;;5059920;28;20156;-79
2022/09/19 08:22:47;;;;;;;7.97;0.47;;;12.10;99.90;;;;;;5060985;28;20348;-79
2022/09/19 08:25:14;;;;;;;2.50;0.60;;;12.00;99.90;;;;;;5060279;28;20045;-81
2022/09/19 08:27:43;;;;;;;0.00;0.00;;;12.10;99.90;;;;;;5059230;28;20056;-79
2022/09/19 08:30:09;;;;;;;0.63;0.38;;;12.30;99.90;;;;;;5061238;28;20052;-81
2022/09/19 08:32:35;;;;;;;0.10;0.10;;;12.40;99.90;;;;;;5060639;28;20049;-80
2022/09/19 08:35:01;;;;;;;5.72;0.82;;;12.30;99.90;;;;;;5060822;28;20480;-80
2022/09/19 08:37:26;;;;;;;0.93;0.75;;;12.20;99.90;;;;;;5060614;28;20434;-80
2022/09/19 08:42:54;;;;;;;14.27;0.57;;;12.20;99.90;;;;;;5057097;28;20056;-80
2022/09/19 08:45:36;;;;;;;3.83;0.70;;;12.90;99.90;;;;;;5040299;28;20415;-80
2022/09/19 08:48:06;;;;;;;0.00;0.00;;;13.60;99.90;;;;;;5052253;28;20052;-80
2022/09/19 08:50:34;;;;;;;0.63;0.43;;;14.00;99.90;;;;;;5059769;28;20462;-80
2022/09/19 08:53:04;;;;;;;5.18;1.52;;;14.40;99.90;;;;;;5058517;28;20499;-79
2022/09/19 08:55:33;;;;;;;3.72;1.38;;;14.90;99.90;;;;;;5060109;28;20040;-80
2022/09/19 08:58:03;;;;;;;0.32;0.20;;;15.10;99.90;;;;;;5059481;28;20414;-80
2022/09/19 09:00:37;;;;;;;0.30;0.22;;;15.20;99.90;;;;;;5059696;28;20048;-78
2022/09/19 09:03:16;;;;;;;0.57;0.55;;;15.10;99.90;;;;;;5059944;28;20044;-79
2022/09/19 09:05:48;;;;;;;0.13;0.13;;;15.10;99.90;;;;;;5059697;28;20048;-79
2022/09/19 09:08:39;;;;;;;4.28;1.17;;;15.20;99.90;;;;;;5058553;28;20501;-79
2022/09/19 09:11:22;;;;;;;0.00;0.00;;;15.40;99.90;;;;;;5059480;28;20049;-79
2022/09/19 09:14:16;;;;;;;0.00;0.00;;;15.40;99.90;;;;;;5058920;28;20048;-78
2022/09/19 09:17:16;;;;;;;0.20;0.20;;;15.30;99.90;;;;;;5059474;28;20056;-79
2022/09/19 09:20:03;;;;;;;4.07;0.85;;;15.30;99.90;;;;;;5039191;28;20184;-79
2022/09/19 09:22:38;;;;;;;3.58;0.98;;;15.40;99.90;;;;;;5054452;28;20049;-80
2022/09/19 09:25:19;;;;;;;0.40;0.32;;;15.50;99.90;;;;;;5060155;28;20054;-79
2022/09/19 09:28:06;;;;;;;1.92;0.85;;;15.40;99.90;;;;;;5059778;28;20482;-79
2022/09/19 09:30:37;;;;;;;0.32;0.25;;;15.50;99.90;;;;;;5060563;28;20052;-79
2022/09/19 09:33:21;;;;;;;4.30;0.95;;;15.40;99.90;;;;;;5063611;28;20083;-79
2022/09/19 09:35:49;;;;;;;0.65;0.65;;;15.40;99.90;;;;;;5063648;28;20125;-78
2022/09/19 09:38:30;;;;;;;0.03;0.03;;;15.60;99.90;;;;;;5063401;28;20093;-81
2022/09/19 09:44:13;;;;;;;1.38;1.00;;;16.00;99.90;;;;;;5064717;28;20052;-80
2022/09/19 09:46:58;;;;;;;0.00;0.00;;;15.80;99.90;;;;;;5048003;28;20059;-79
2022/09/19 09:49:29;;;;;;;1.60;0.85;;;15.70;99.90;;;;;;5063236;28;20444;-80
2022/09/19 09:52:34;;;;;;;0.10;0.10;;;15.00;99.90;;;;;;5057772;28;20036;-80
2022/09/19 09:58:21;;;;;;;6.70;0.63;;;14.30;99.90;;;;;;5062413;28;20478;-81
2022/09/19 10:03:52;;;;;;;0.00;0.00;;;12.40;99.90;;;;;;5063052;28;20057;-81
2022/09/19 10:06:30;;;;;;;0.75;0.50;;;12.10;99.90;;;;;;5063408;28;20071;-82
2022/09/19 10:09:16;;;;;;;0.00;0.00;;;11.70;99.90;;;;;;5062988;28;20059;-82
2022/09/19 10:11:56;;;;;;;0.00;0.00;;;11.50;99.90;;;;;;5062945;28;20101;-83
2022/09/19 10:14:29;;;;;;;0.52;0.20;;;11.40;99.90;;;;;;5063200;28;20342;-83
2022/09/19 10:17:01;;;;;;;0.00;0.00;;;11.30;99.90;;;;;;5063279;28;20445;-84
2022/09/19 10:19:40;;;;;;;2.60;0.90;;;11.20;99.90;;;;;;5064140;28;20128;-83
2022/09/19 10:22:14;;;;;;;0.08;0.08;;;11.30;99.90;;;;;;5062982;28;20098;-82
2022/09/19 10:24:58;;;;;;;0.00;0.00;;;11.30;99.90;;;;;;5061341;28;20051;-82
2022/09/19 10:27:39;;;;;;;0.20;0.20;;;11.40;99.90;;;;;;5061146;28;20544;-82
2022/09/19 10:30:19;;;;;;;0.22;0.22;;;11.50;99.90;;;;;;5062232;28;20044;-82
2022/09/19 10:32:46;;;;;;;0.45;0.30;;;11.50;99.90;;;;;;5061448;28;20052;-83
2022/09/19 10:35:30;;;;;;;3.70;0.90;;;11.50;99.90;;;;;;5061677;28;20119;-83
2022/09/19 10:38:17;;;;;;;0.00;0.00;;;11.60;99.90;;;;;;5076897;28;20419;-83
2022/09/19 10:41:00;;;;;;;19.98;0.43;;;11.80;99.90;;;;;;5062493;28;20414;-82
2022/09/19 10:43:44;;;;;;;10.73;0.98;;;12.00;99.90;;;;;;5061731;28;20059;-82
2022/09/19 10:46:36;;;;;;;0.00;0.00;;;12.20;99.90;;;;;;5062679;28;20060;-82
2022/09/19 10:49:18;;;;;;;0.30;0.30;;;12.50;99.90;;;;;;5061630;28;20056;-82
2022/09/19 10:51:47;;;;;;;6.82;1.55;;;12.90;99.90;;;;;;5060744;28;20053;-83
2022/09/19 10:54:36;;;;;;;0.08;0.08;;;13.30;99.90;;;;;;5061723;28;20045;-82
2022/09/19 10:57:25;;;;;;;1.55;0.57;;;13.50;99.90;;;;;;5061551;28;20082;-83
2022/09/19 10:59:51;;;;;;;0.30;0.22;;;13.80;99.90;;;;;;5060741;28;20052;-82
2022/09/19 11:02:22;;;;;;;0.45;0.20;;;14.30;99.90;;;;;;5061205;28;20051;-83
2022/09/19 11:05:21;;;;;;;0.20;0.20;;;14.60;99.90;;;;;;5061434;28;20131;-82
2022/09/19 11:07:57;;;;;;;0.13;0.13;;;14.80;99.90;;;;;;5061453;28;20798;-81
2022/09/19 11:10:32;;;;;;;1.33;1.05;;;14.30;99.90;;;;;;5061655;28;20124;-81
2022/09/19 11:13:22;;;;;;;0.20;0.20;;;13.90;99.90;;;;;;5061712;28;20056;-80
2022/09/19 11:15:56;;;;;;;1.17;0.90;;;14.10;99.90;;;;;;5062490;28;20059;-80
2022/09/19 11:19:03;;;;;;;0.40;0.20;;;14.30;99.90;;;;;;5061144;28;20518;-81
2022/09/19 11:22:03;;;;;;;11.98;0.38;;;14.40;99.90;;;;;;5062636;28;20051;-79
2022/09/19 11:24:49;;;;;;;0.63;0.60;;;14.60;99.90;;;;;;5061698;28;20041;-80
2022/09/19 11:27:44;;;;;;;0.40;0.32;;;14.80;99.90;;;;;;5061152;28;20058;-81
2022/09/19 11:30:18;;;;;;;0.52;0.52;;;15.00;99.90;;;;;;5061624;28;20068;-80
2022/09/19 11:33:07;;;;;;;0.65;0.52;;;15.50;99.90;;;;;;5064055;28;20437;-81
2022/09/19 11:35:48;;;;;;;0.17;0.17;;;15.70;99.90;;;;;;5062886;28;20052;-81
2022/09/19 11:38:19;;;;;;;1.73;0.68;;;15.90;99.90;;;;;;5063175;28;20621;-80
2022/09/19 11:40:59;;;;;;;0.00;0.00;;;16.10;99.90;;;;;;5074719;28;20150;-79
2022/09/19 11:43:48;;;;;;;0.95;0.32;;;16.30;99.90;;;;;;5082929;28;20044;-80
2022/09/19 11:46:52;;;;;;;1.25;0.98;;;16.80;99.90;;;;;;5083478;28;20048;-80
2022/09/19 11:49:51;;;;;;;0.00;0.00;;;16.40;99.90;;;;;;5082944;28;20044;-79
2022/09/19 11:53:04;;;;;;;0.55;0.40;;;15.10;88.70;;;;;;5084285;28;20055;-81
2022/09/19 11:55:49;;;;;;;0.52;0.20;;;14.30;99.90;;;;;;5036915;28;20422;-80
2022/09/19 11:58:34;;;;;;;0.95;0.45;;;13.80;99.90;;;;;;5043152;28;20061;-81
2022/09/19 12:01:35;;;;;;;1.75;1.27;;;13.90;99.90;;;;;;5043026;28;20057;-80
2022/09/19 12:04:26;;;;;;;0.40;0.40;;;14.70;99.90;;;;;;5059166;28;20056;-79
2022/09/19 12:07:24;;;;;;;0.45;0.32;;;15.50;99.90;;;;;;5063249;28;20608;-78
2022/09/19 12:09:58;;;;;;;0.30;0.05;;;16.00;99.90;;;;;;5047036;28;20080;-78
2022/09/19 12:12:30;;;;;;;1.00;0.52;;;15.90;99.90;;;;;;5044022;28;20084;-80
2022/09/19 12:15:16;;;;;;;0.57;0.30;;;15.70;1.00;;;;;;5061545;28;20075;-79
2022/09/19 12:17:50;;;;;;;0.05;0.05;;;15.60;99.90;;;;;;5063549;28;20441;-79
2022/09/19 12:20:26;;;;;;;1.65;0.57;;;15.60;99.90;;;;;;5061412;28;20487;-79
2022/09/19 12:26:16;;;;;;;0.90;0.55;;;15.70;16.60;;;;;;5027140;28;20114;-78
2022/09/19 12:29:08;;;;;;;7.53;0.30;;;15.10;65.50;;;;;;5042206;28;20132;-79
2022/09/19 12:31:39;;;;;;;0.32;0.13;;;14.70;99.90;;;;;;5038333;28;20127;-79
2022/09/19 12:34:21;;;;;;;0.47;0.40;;;14.60;99.90;;;;;;5058105;28;20052;-81
2022/09/19 12:36:56;;;;;;;0.57;0.32;;;15.10;99.90;;;;;;5062505;28;20053;-80
2022/09/19 12:40:06;;;;;;;0.57;0.30;;;16.10;99.90;;;;;;5062068;28;20048;-78
2022/09/19 12:42:46;;;;;;;0.25;0.25;;;17.30;11.20;;;;;;4998922;28;20072;-79
2022/09/19 12:45:21;;;;;;;0.30;0.22;;;17.40;1.00;;;;;;4999491;28;20135;-81
2022/09/19 12:48:22;;;;;;;7.53;1.85;;;16.70;1.00;;;;;;5041404;28;20503;-79
2022/09/19 12:50:50;;;;;;;0.10;0.10;;;16.00;1.00;;;;;;5061990;28;20041;-78
2022/09/19 12:53:26;;;;;;;0.17;0.17;;;16.50;99.90;;;;;;5061949;28;20560;-79
2022/09/19 12:56:22;;;;;;;5.82;1.02;;;17.10;99.90;;;;;;5061917;28;20616;-79
2022/09/19 12:58:53;;;;;;;0.43;0.43;;;17.50;99.90;;;;;;5064614;28;20125;-79
2022/09/19 13:01:24;;;;;;;7.28;0.77;;;18.00;1.00;;;;;;5066319;28;20076;-79
2022/09/19 13:04:04;;;;;;;1.75;0.93;;;17.50;1.00;;;;;;5066243;28;20076;-81
2022/09/19 13:06:36;;;;;;;0.95;0.40;;;17.50;1.00;;;;;;5066044;28;20060;-78
2022/09/19 13:09:11;;;;;;;0.35;0.28;;;18.20;86.90;;;;;;5066573;28;20059;-79
2022/09/19 13:11:45;;;;;;;0.00;0.00;;;18.50;1.00;;;;;;5066370;28;20044;-78
2022/09/19 13:14:30;;;;;;;0.35;0.35;;;18.90;99.90;;;;;;5065834;28;20097;-77
2022/09/19 13:25:27;;;;;;;0.10;0.10;;;19.10;99.30;;;;;;5066261;28;20120;-75
2022/09/19 13:28:18;;;;;;;0.22;0.22;;;18.30;95.90;;;;;;5066403;28;20091;-79
2022/09/19 13:30:50;;;;;;;2.65;0.60;;;17.40;99.90;;;;;;5067227;28;20123;-79
2022/09/19 13:33:47;;;;;;;0.10;0.10;;;17.30;1.00;;;;;;5065474;28;20457;-80
2022/09/19 13:36:23;;;;;;;0.40;0.20;;;18.60;99.90;;;;;;5066665;28;20053;-80
2022/09/19 13:39:03;;;;;;;0.00;0.00;;;17.60;99.90;;;;;;5066658;28;20510;-79
2022/09/19 13:41:45;;;;;;;1.23;0.73;;;16.60;99.90;;;;;;5066859;28;20051;-78
2022/09/19 13:44:20;;;;;;;0.43;0.22;;;16.30;99.90;;;;;;5066798;28;20075;-80
2022/09/19 13:47:07;;;;;;;0.90;0.60;;;16.50;1.00;;;;;;5065868;28;20060;-79
2022/09/19 13:49:51;;;;;;;1.08;0.73;;;17.10;87.50;;;;;;5067263;28;20492;-79
2022/09/19 13:52:31;;;;;;;0.00;0.00;;;17.10;92.00;;;;;;5066348;28;20650;-79
2022/09/19 13:55:12;;;;;;;2.10;0.30;;;16.30;99.90;;;;;;5065900;28;20055;-78